Nearby METAR Reports

 

KAGC - Pittsburgh/Alleg, Pennsylvania, USA
Distance from station: N 14mi, 23km
Updated: Tue, Jan-22-2019 12:53pm EST
Clear
Clear
 Wind from SE
Wind: SE 7 mph , 11 km/h
Temperature: 27°F , -3°C
Wind Chill: 19°F , -7°C
Dew Point: 9°F , -13°C
Humidity: 46%
Barometer: 30.41 inHg , 1029.8 hPa
Clouds: Clear
Visibility: 10 miles , 16 km
2019/01/22 17:53 KAGC 221753Z 13006KT 10SM CLR M03/M13 A3041 RMK AO2 SLP327 T10281128 11028 21156 58027
KAFJ - Washington, Pennsylvania, USA
Distance from station: W 17mi, 28km
Updated: Tue, Jan-22-2019 12:56pm EST
Clear
Clear
 Wind from SSE
Wind: SSE 6 mph , 9 km/h
Temperature: 30°F , -1°C
Wind Chill: 24°F , -4°C
Dew Point: 12°F , -11°C
Humidity: 47%
Barometer: 30.45 inHg , 1031.2 hPa
Clouds: Clear
Visibility: 10 miles , 16 km
2019/01/22 17:56 KAFJ 221756Z AUTO 16005KT 10SM CLR M01/M11 A3045 RMK AO2 SLP333 T10111111 11011 21161 58025 FZRANO
 
KLBE - Latrobe, Pennsylvania, USA
Distance from station: ENE 30mi, 48km
Updated: Tue, Jan-22-2019 12:47pm EST
Mostly cloudy
Mostly cloudy
 Wind from S
Wind: S 12 mph , 19 km/h
Temperature: 30°F , -1°C
Wind Chill: 20°F , -7°C
Dew Point: 3°F , -16°C
Humidity: 31%
Barometer: 30.44 inHg , 1030.8 hPa
Clouds: Mostly cloudy
Visibility: 20 miles , 32 km
Cloud details: Mostly cloudy 8500 ft
2019/01/22 17:47 KLBE 221747Z 17010KT 20SM BKN085 M01/M16 A3044
KPIT - Pittsburgh, Pennsylvania, USA
Distance from station: NW 30mi, 48km
Updated: Tue, Jan-22-2019 12:51pm EST
Overcast
Overcast
 Wind from SE
Wind: SE 7 mph , 11 km/h
Temperature: 25°F , -4°C
Wind Chill: 17°F , -8°C
Dew Point: 9°F , -13°C
Humidity: 50%
Barometer: 30.42 inHg , 1030.1 hPa
Clouds: Overcast
Visibility: 10 miles , 16 km
Cloud details: Overcast 23000 ft
2019/01/22 17:51 KPIT 221751Z 14006KT 10SM OVC230 M04/M13 A3042 RMK AO2 SLP335 T10441133 11044 21161 58027
 
KMGW - Morgantown, West Virginia, USA
Distance from station: S 34mi, 55km
Updated: Tue, Jan-22-2019 12:53pm EST
Clear
Clear
 Wind from varies
Wind: varies 5 mph , 7 km/h
Temperature: 36°F , 2°C
Wind Chill: 32°F , 0°C
Dew Point: 9°F , -13°C
Humidity: 32%
Barometer: 30.42 inHg , 1030.1 hPa
Clouds: Clear
Visibility: 10 miles , 16 km
2019/01/22 17:53 KMGW 221753Z VRB04KT 10SM CLR 02/M13 A3042 RMK AO2 SLP321 T00221133 10022 21150 58022
KHLG - Wheeling, West Virginia, USA
Distance from station: W 37mi, 60km
Updated: Tue, Jan-22-2019 12:53pm EST
Clear
Clear
 Wind from SE
Wind: SE 6 mph , 9 km/h
Temperature: 27°F , -3°C
Wind Chill: 20°F , -7°C
Dew Point: 9°F , -13°C
Humidity: 46%
Barometer: 30.42 inHg , 1030.1 hPa
Clouds: Clear
Visibility: 10 miles , 16 km
2019/01/22 17:53 KHLG 221753Z 13005KT 10SM CLR M03/M13 A3042 RMK AO2 SLP325 I6000 T10331133 11033 21144 58024
 
KBTP - Butler Co., Pennsylvania, USA
Distance from station: N 43mi, 69km
Updated: Tue, Jan-22-2019 12:56pm EST
Clear
Clear
 Wind from ESE
Wind: ESE 10 mph , 17 km/h
Temperature: 23°F , -5°C
Wind Chill: 13°F , -11°C
Dew Point: 7°F , -14°C
Humidity: 50%
Barometer: 30.43 inHg , 1030.5 hPa
Clouds: Clear
Visibility: 10 miles , 16 km
2019/01/22 17:56 KBTP 221756Z AUTO 12009KT 10SM CLR M05/M14 A3043 RMK AO2 SLP336 P0006 60008 T10501139 11050 21167 58028 FZRANO
KBVI - Beaver Falls Arp, Pennsylvania, USA
Distance from station: NNW 49mi, 79km
Updated: Tue, Jan-15-2019 6:47pm EST
NOT Current
Overcast
Overcast
 Wind from WSW
Wind: WSW 13 mph , 20 km/h, Gust: 18 mph , 30 km/h
Temperature: 23°F , -5°C
Wind Chill: 11°F , -12°C
Dew Point: 19°F , -7°C
Humidity: 86%
Barometer: 30.14 inHg , 1020.7 hPa
Clouds: Overcast
Visibility: 10 miles , 16 km
Cloud details: Overcast 1100 ft
2019/01/15 23:47 KBVI 152347Z 25011G16KT 10SM OVC011 M05/M07 A3014
 
K2G4 - Garrett Co, Maryland, USA
Distance from station: SE 51mi, 82km
Updated: Tue, Jan-22-2019 1:30pm EST
Clear
Clear
 Wind from calm
Wind: Calm
Temperature: 21°F , -6°C
Dew Point: 12°F , -11°C
Humidity: 68%
Barometer: 30.34 inHg , 1027.4 hPa
Clouds: Clear
Visibility: 10 miles , 16 km
2019/01/22 18:30 K2G4 221830Z AUTO 00000KT 10SM CLR M06/M11 A3034 RMK AO1
KIDI - Indiana/Stewart, Pennsylvania, USA
Distance from station: NE 56mi, 90km
Updated: Tue, Jan-22-2019 1:35pm EST
Clear
Clear
 Wind from S
Wind: S 15 mph , 24 km/h, Gust: 23 mph , 37 km/h
Temperature: 28°F , -2°C
Wind Chill: 16°F , -9°C
Dew Point: 3°F , -16°C
Humidity: 34%
Barometer: 30.45 inHg , 1031.2 hPa
Clouds: Clear
Visibility: 10 miles , 16 km
2019/01/22 18:35 KIDI 221835Z AUTO 19013G20KT 10SM CLR M02/M16 A3045 RMK A01
 
KJST - Johnstown, Pennsylvania, USA
Distance from station: ENE 60mi, 96km
Updated: Tue, Jan-22-2019 12:54pm EST
Few Clouds
Few Clouds
 Wind from S
Wind: S 15 mph , 24 km/h, Gust: 22 mph , 35 km/h
Temperature: 21°F , -6°C
Wind Chill: 7°F , -14°C
Dew Point: 3°F , -16°C
Humidity: 45%
Barometer: 30.41 inHg , 1029.8 hPa
Clouds: Few Clouds
Visibility: 10 miles , 16 km
Cloud details: Few Clouds 7500 ft
2019/01/22 17:54 KJST 221754Z AUTO 17013G19KT 10SM FEW075 M06/M16 A3041 RMK AO2 SLP347 T10611161 11061 21194 58021
KCBE - Cumberland Reg, Maryland, USA
Distance from station: ESE 72mi, 116km
Updated: Tue, Jan-22-2019 1:20pm EST
Mostly cloudy
Mostly cloudy
 Wind from calm
Wind: Calm
Temperature: 21°F , -6°C
Dew Point: 5°F , -15°C
Humidity: 49%
Barometer: 30.61 inHg , 1036.6 hPa
Clouds: Mostly cloudy
Visibility: 10 miles , 16 km
Cloud details: Mostly cloudy 9500 ft
2019/01/22 18:20 KCBE 221820Z AUTO 00000KT 10SM BKN095 M06/M15 A3061 RMK AO2 T10591148
 
KILG - Wilmington, Delaware, USA
Distance from station: ESE 234mi, 377km
Updated: Tue, Jan-22-2019 12:51pm EST
Clear
Clear
 Wind from NW
Wind: NW 6 mph , 9 km/h
Temperature: 28°F , -2°C
Wind Chill: 21°F , -6°C
Dew Point: 3°F , -16°C
Humidity: 34%
Barometer: 30.69 inHg , 1039.3 hPa
Clouds: Clear
Visibility: 10 miles , 16 km
2019/01/22 17:51 KILG 221751Z 31005KT 10SM CLR M02/M16 A3069 RMK AO2 SLP392 T10171161 11017 21117 58011
KTUS - Tucson, Arizona, USA
Distance from station: WSW 1806mi, 3283km
Updated: Tue, Jan-22-2019 12:53pm EST
Clear
Clear
 Wind from varies
Wind: varies 7 mph , 11 km/h
Temperature: 50°F , 10°C
Wind Chill: 47°F , 8°C
Dew Point: 27°F , -3°C
Humidity: 40%
Barometer: 30.10 inHg , 1019.3 hPa
Clouds: Clear
Visibility: 10 miles , 16 km
2019/01/22 17:53 KTUS 221753Z VRB06KT 10SM CLR 10/M03 A3010 RMK AO2 SLP180 T01001028 10106 20039 51019